• Join FlightAware (Why Join?)
  • Login
  • US Flag 
04:41PM EST


 

Airport Tracker/Info


-or-


 

Live Flight TrackerFlight Track Log ✈ LBQ792 ✈ 02-May-2013 ✈ KRDG - KELM

Flight Track Log - Related Links

Times and Time Zones

All times are in EDT time to prevent confusion due to time zone crossing. See the LBQ792 flight status page for this flight to view local times or setup timezone preferences in your user account.

Time Position Orientation Groundspeed Altitude Reporting Facility
EDT Latitude Longitude Course Direction KTS MPH feet Rate Location/Type
08:14PM 40.3764 -76.0619 288° West 188 216 5,400  Level New York Center
08:15PM 40.3969 -76.1153 297° West 188 216 6,600 1,260 Climbing New York Center
08:16PM 40.4186 -76.1878 291° West 193 222 8,000 1,320 Climbing New York Center
08:17PM 40.4971 -76.3462 281° West  Level FlightAware Approximate
08:17PM 40.4425 -76.2525 296° West 198 228 9,300  Level New York Center
08:18PM 40.5167 -76.4374 270° West  Level FlightAware Approximate
08:18PM 40.4897 -76.2725 342° North 169 194 10,700  Level New York Center
08:19PM 40.5363 -76.5284 288° West  Level FlightAware Approximate
08:19PM 40.5325 -76.2897 343° North 177 204 11,800  Level New York Center
08:20PM 40.5983 -76.3114 346° North 204 235 12,000 60 Climbing New York Center
08:21PM 40.6556 -76.3353 342° North 223 257 12,000  Level New York Center
08:22PM 40.7314 -76.3633 344° North 241 277 12,000  Level New York Center
08:23PM 40.7928 -76.3847 345° North 247 284 12,000  Level New York Center
08:24PM 40.8686 -76.4128 344° North 252 290 12,000  Level New York Center
08:25PM 40.9300 -76.4344 345° North 252 290 12,000  Level New York Center
08:26PM 41.0061 -76.4572 347° North 257 296 12,000  Level New York Center
08:27PM 41.0758 -76.4825 345° North 257 296 12,000  Level New York Center
08:28PM 41.1369 -76.5069 343° North 257 296 12,000  Level New York Center
08:29PM 41.2044 -76.5319 344° North 257 296 12,000  Level New York Center
08:30PM 41.2803 -76.5606 344° North 257 296 12,000  Level New York Center
08:31PM 41.3497 -76.5858 345° North 257 296 12,000  Level New York Center
08:32PM 41.4172 -76.6108 344° North 257 296 12,000  Level New York Center
08:33PM 41.4786 -76.6356 343° North 257 296 12,000  Level New York Center
08:34PM 41.5481 -76.6611 345° North 257 296 12,000 -300 Level New York Center
08:35PM 41.6258 -76.6903 344° North 257 296 11,400 -900 Descending New York Center
08:36PM 41.7014 -76.7192 344° North 269 310 10,300 -1,260 Descending New York Center
08:37PM 41.7792 -76.7483 344° North 281 323 9,000 -1,320 Descending New York Center